createdAt,value
2022-07-25T00:01:44.370Z,53.71
2022-07-25T00:04:12.592Z,53.50
2022-07-25T00:06:41.740Z,53.73
2022-07-25T00:09:08.388Z,53.45
2022-07-25T00:11:35.009Z,53.59
2022-07-25T00:14:01.605Z,53.69
2022-07-25T00:16:28.176Z,53.44
2022-07-25T00:18:54.909Z,53.80
2022-07-25T00:21:21.462Z,53.54
2022-07-25T00:23:48.385Z,53.55
2022-07-25T00:26:14.933Z,53.37
2022-07-25T00:28:41.598Z,53.03
2022-07-25T00:31:08.158Z,52.90
2022-07-25T00:33:34.870Z,53.11
2022-07-25T00:36:01.571Z,52.99
2022-07-25T00:38:28.485Z,52.94
2022-07-25T00:40:55.844Z,52.99
2022-07-25T00:43:22.816Z,52.86
2022-07-25T00:45:49.620Z,52.45
2022-07-25T00:48:16.228Z,52.56
2022-07-25T00:50:43.115Z,52.32
2022-07-25T00:53:09.858Z,52.10
2022-07-25T00:55:36.965Z,52.02
2022-07-25T00:58:03.834Z,51.42
2022-07-25T01:00:30.501Z,51.62
2022-07-25T01:02:57.469Z,51.61
2022-07-25T01:05:24.214Z,51.85
2022-07-25T01:07:51.968Z,51.57
2022-07-25T01:10:18.730Z,51.79
2022-07-25T01:12:51.899Z,51.94
2022-07-25T01:15:23.215Z,51.86
2022-07-25T01:17:50.887Z,52.42
2022-07-25T01:20:21.763Z,52.37
2022-07-25T01:22:48.981Z,52.84
2022-07-25T01:25:16.606Z,52.88
2022-07-25T01:27:44.136Z,52.88
2022-07-25T01:30:14.262Z,53.40
2022-07-25T01:32:41.887Z,53.59
2022-07-25T01:35:10.549Z,53.36
2022-07-25T01:37:37.689Z,53.31
2022-07-25T01:40:05.256Z,53.49
2022-07-25T01:42:32.664Z,53.69
2022-07-25T01:44:59.334Z,54.31
2022-07-25T01:47:26.595Z,54.40
2022-07-25T01:49:53.096Z,54.38
2022-07-25T01:52:19.971Z,54.53
2022-07-25T01:54:46.501Z,54.50
2022-07-25T01:57:14.465Z,54.53
2022-07-25T01:59:41.365Z,54.53
2022-07-25T02:02:09.560Z,54.88
2022-07-25T02:04:36.971Z,55.19
2022-07-25T02:07:05.821Z,55.20
2022-07-25T02:09:32.836Z,55.29
2022-07-25T02:11:59.844Z,55.32
2022-07-25T02:14:26.776Z,55.27
2022-07-25T02:16:53.892Z,55.35
2022-07-25T02:19:20.643Z,55.91
2022-07-25T02:21:47.159Z,56.01
2022-07-25T02:24:14.104Z,56.12
2022-07-25T02:26:40.667Z,55.88
2022-07-25T02:29:07.208Z,55.95
2022-07-25T02:31:33.674Z,55.85
2022-07-25T02:34:00.646Z,56.08
2022-07-25T02:36:27.225Z,56.43
2022-07-25T02:38:53.732Z,56.50
2022-07-25T02:41:20.620Z,56.16
2022-07-25T02:43:47.526Z,56.45
2022-07-25T02:46:14.230Z,56.48
2022-07-25T02:48:40.794Z,56.46
2022-07-25T02:51:07.411Z,56.21
2022-07-25T02:53:56.040Z,56.42
2022-07-25T02:56:21.162Z,55.68
2022-07-25T02:58:48.149Z,55.81
2022-07-25T03:01:15.068Z,55.87
2022-07-25T03:03:41.822Z,55.75
2022-07-25T03:06:08.439Z,55.19
2022-07-25T03:08:35.164Z,55.19
2022-07-25T03:11:01.726Z,55.19
2022-07-25T03:13:28.409Z,55.24
2022-07-25T03:15:56.095Z,54.90
2022-07-25T03:18:22.719Z,54.94
2022-07-25T03:20:49.771Z,54.64
2022-07-25T03:23:16.307Z,55.00
2022-07-25T03:25:42.820Z,55.00
2022-07-25T03:28:09.428Z,54.69
2022-07-25T03:30:35.939Z,55.04
2022-07-25T03:33:02.547Z,54.80
2022-07-25T03:35:29.022Z,54.57
2022-07-25T03:37:55.916Z,54.59
2022-07-25T03:40:22.605Z,54.21
2022-07-25T03:42:49.196Z,53.78
2022-07-25T03:45:16.825Z,53.80
2022-07-25T03:47:43.461Z,53.71
2022-07-25T03:50:10.162Z,54.08
2022-07-25T03:52:38.421Z,53.67
2022-07-25T03:56:21.421Z,53.38
2022-07-25T03:58:48.354Z,53.33
2022-07-25T04:01:14.986Z,53.11
2022-07-25T04:03:41.553Z,52.96
2022-07-25T04:06:11.058Z,52.58
2022-07-25T04:08:37.648Z,52.57
2022-07-25T04:11:04.300Z,52.15
2022-07-25T04:13:30.938Z,52.26
2022-07-25T04:15:57.549Z,52.19
2022-07-25T04:18:28.008Z,52.38
2022-07-25T04:20:55.490Z,51.75
2022-07-25T04:23:22.217Z,52.35
2022-07-25T04:25:48.824Z,51.66
2022-07-25T04:28:15.522Z,51.71
2022-07-25T04:30:45.409Z,51.54
2022-07-25T04:33:13.343Z,51.89
2022-07-25T04:35:40.142Z,51.86
2022-07-25T04:38:11.886Z,51.81
2022-07-25T04:40:39.528Z,51.49
2022-07-25T04:43:06.090Z,51.32
2022-07-25T04:45:33.145Z,51.45
2022-07-25T04:47:59.792Z,51.35
2022-07-25T04:50:26.951Z,51.31
2022-07-25T04:52:53.548Z,51.45
2022-07-25T04:55:20.582Z,51.77
2022-07-25T04:57:47.378Z,51.68
2022-07-25T05:00:15.252Z,51.95
2022-07-25T05:02:43.545Z,51.61
2022-07-25T05:05:20.926Z,51.41
2022-07-25T05:07:48.939Z,51.84
2022-07-25T05:10:15.870Z,51.48
2022-07-25T05:12:42.412Z,51.59
2022-07-25T05:15:09.597Z,51.63
2022-07-25T05:17:36.234Z,51.26
2022-07-25T05:20:03.156Z,51.16
2022-07-25T05:22:30.045Z,51.16
2022-07-25T05:24:56.611Z,50.95
2022-07-25T05:27:23.211Z,50.68
2022-07-25T05:29:49.958Z,51.16
2022-07-25T05:32:16.512Z,50.90
2022-07-25T05:34:43.018Z,50.78
2022-07-25T05:37:09.746Z,50.92
2022-07-25T05:39:37.489Z,50.99
2022-07-25T05:42:04.052Z,51.27
2022-07-25T05:44:31.033Z,50.98
2022-07-25T05:46:57.627Z,51.39
2022-07-25T05:49:24.596Z,51.29
2022-07-25T05:51:51.570Z,51.43
2022-07-25T05:54:18.122Z,51.24
2022-07-25T05:56:44.611Z,51.41
2022-07-25T05:59:11.180Z,51.61
2022-07-25T06:01:37.974Z,51.87
2022-07-25T06:04:04.978Z,51.82
2022-07-25T06:06:32.779Z,51.90
2022-07-25T06:08:59.823Z,51.65
2022-07-25T06:11:30.942Z,51.56
2022-07-25T06:13:57.943Z,51.42
2022-07-25T06:16:24.902Z,51.60
2022-07-25T06:18:51.434Z,51.07
2022-07-25T06:21:17.968Z,50.52
2022-07-25T06:23:44.565Z,50.08
2022-07-25T06:26:11.610Z,50.11
2022-07-25T06:28:39.000Z,50.08
2022-07-25T06:31:05.742Z,49.48
2022-07-25T06:33:32.283Z,49.46
2022-07-25T06:35:58.882Z,49.10
2022-07-25T06:38:25.639Z,48.61
2022-07-25T06:40:52.158Z,48.62
2022-07-25T06:43:19.237Z,48.63
2022-07-25T06:45:47.580Z,48.30
2022-07-25T06:48:17.760Z,48.69
2022-07-25T06:50:45.489Z,48.88
2022-07-25T06:53:12.291Z,48.24
2022-07-25T06:55:38.858Z,47.88
2022-07-25T06:58:05.660Z,47.86
2022-07-25T07:00:32.272Z,47.60
2022-07-25T07:03:01.613Z,47.46
2022-07-25T07:05:33.860Z,47.01
2022-07-25T07:08:00.826Z,46.87
2022-07-25T07:10:28.185Z,46.50
2022-07-25T07:13:11.881Z,47.00
2022-07-25T07:15:43.738Z,46.92
2022-07-25T07:18:10.236Z,47.13
2022-07-25T07:20:37.098Z,46.95
2022-07-25T07:23:03.654Z,45.77
2022-07-25T07:25:30.767Z,46.05
2022-07-25T07:27:57.627Z,45.88
2022-07-25T07:30:30.606Z,45.30
2022-07-25T07:33:11.133Z,45.02
2022-07-25T07:35:37.767Z,44.87
2022-07-25T07:38:04.585Z,44.79
2022-07-25T07:40:32.111Z,44.69
2022-07-25T07:43:02.502Z,44.90
2022-07-25T07:45:29.931Z,43.96
2022-07-25T07:47:57.130Z,44.21
2022-07-25T07:50:25.685Z,43.83
2022-07-25T07:52:53.613Z,44.01
2022-07-25T07:55:46.954Z,44.13
2022-07-25T07:58:16.219Z,43.99
2022-07-25T08:00:45.318Z,43.79
2022-07-25T08:03:12.505Z,43.76
2022-07-25T08:05:44.408Z,43.61
2022-07-25T08:08:14.193Z,43.24
2022-07-25T08:10:46.614Z,43.10
2022-07-25T08:13:15.859Z,43.37
2022-07-25T08:15:44.702Z,43.70
2022-07-25T08:18:17.547Z,42.97
2022-07-25T08:20:48.767Z,44.09
2022-07-25T08:23:15.911Z,43.46
2022-07-25T08:25:43.736Z,43.57
2022-07-25T08:28:11.482Z,43.97
2022-07-25T08:30:39.249Z,44.13
2022-07-25T08:33:09.660Z,44.82
2022-07-25T08:35:36.661Z,44.71
2022-07-25T08:38:04.676Z,44.46
2022-07-25T08:40:32.663Z,44.25
2022-07-25T08:42:59.809Z,44.43
2022-07-25T08:45:28.501Z,44.46
2022-07-25T08:47:56.344Z,43.98
2022-07-25T08:50:25.650Z,44.49
2022-07-25T08:53:04.860Z,44.70
2022-07-25T08:55:39.840Z,45.23
2022-07-25T08:58:06.444Z,45.60
2022-07-25T09:00:33.255Z,45.27
2022-07-25T09:03:02.956Z,45.19
2022-07-25T09:05:31.619Z,45.39
2022-07-25T09:08:06.357Z,45.12
2022-07-25T09:10:33.183Z,44.43
2022-07-25T09:13:02.382Z,43.80
2022-07-25T09:15:35.378Z,44.17
2022-07-25T09:18:05.959Z,44.53
2022-07-25T09:20:56.485Z,44.16
2022-07-25T09:23:29.173Z,44.15
2022-07-25T09:26:08.642Z,44.39
2022-07-25T09:28:42.335Z,44.42
2022-07-25T09:31:09.783Z,44.26
2022-07-25T09:33:46.651Z,44.07
2022-07-25T09:36:13.815Z,43.58
2022-07-25T09:38:40.287Z,43.65
2022-07-25T09:41:07.677Z,43.68
2022-07-25T09:43:42.227Z,43.97
2022-07-25T09:46:10.021Z,44.25
2022-07-25T09:48:39.682Z,43.68
2022-07-25T09:51:07.476Z,43.80
2022-07-25T09:53:34.118Z,43.77
2022-07-25T09:56:00.804Z,43.76
2022-07-25T09:58:28.440Z,43.66
2022-07-25T10:01:00.832Z,43.33
2022-07-25T10:03:53.880Z,41.92
2022-07-25T10:06:38.983Z,42.24
2022-07-25T10:09:12.695Z,43.21
2022-07-25T10:11:40.368Z,42.39
2022-07-25T10:14:14.310Z,43.05
2022-07-25T10:16:48.864Z,42.95
2022-07-25T10:19:15.616Z,42.88
2022-07-25T10:21:42.327Z,43.08
2022-07-25T10:24:10.837Z,43.45
2022-07-25T10:26:39.973Z,43.93
2022-07-25T10:29:13.940Z,42.71
2022-07-25T10:31:51.066Z,42.31
2022-07-25T10:34:29.270Z,42.49
2022-07-25T10:36:57.160Z,42.44
2022-07-25T10:39:24.448Z,42.86
2022-07-25T10:41:59.161Z,43.05
2022-07-25T10:44:30.703Z,43.24
2022-07-25T10:47:08.648Z,43.95
2022-07-25T10:49:37.617Z,43.60
2022-07-25T10:52:04.954Z,43.24
2022-07-25T10:54:36.912Z,43.28
2022-07-25T10:57:15.301Z,42.28
2022-07-25T10:59:42.058Z,42.01
2022-07-25T11:02:16.342Z,42.51
2022-07-25T11:04:44.319Z,42.22
2022-07-25T11:07:12.537Z,42.29
2022-07-25T11:09:40.462Z,41.34
2022-07-25T11:12:08.089Z,41.69
2022-07-25T11:14:43.546Z,41.54
2022-07-25T11:17:22.514Z,41.77
2022-07-25T11:20:05.168Z,42.59
2022-07-25T11:22:32.599Z,42.29
2022-07-25T11:25:00.087Z,42.38
2022-07-25T11:27:29.109Z,41.91
2022-07-25T11:30:16.670Z,42.09
2022-07-25T11:32:46.966Z,42.58
2022-07-25T11:35:15.066Z,42.80
2022-07-25T11:37:44.066Z,42.56
2022-07-25T11:40:10.961Z,41.73
2022-07-25T11:42:42.959Z,41.56
2022-07-25T11:45:19.977Z,42.16
2022-07-25T11:48:03.151Z,41.64
2022-07-25T11:50:31.621Z,42.19
2022-07-25T11:53:03.964Z,42.28
2022-07-25T11:55:33.435Z,42.65
2022-07-25T11:58:02.350Z,42.57
2022-07-25T12:00:30.285Z,42.76
2022-07-25T12:03:14.115Z,43.06
2022-07-25T12:05:44.154Z,43.30
2022-07-25T12:08:13.628Z,43.85
2022-07-25T12:10:41.568Z,43.71
2022-07-25T12:13:10.103Z,43.40
2022-07-25T12:15:39.241Z,43.00
2022-07-25T12:18:08.964Z,43.28
2022-07-25T12:20:39.386Z,43.47
2022-07-25T12:23:08.960Z,43.72
2022-07-25T12:25:41.861Z,43.70
2022-07-25T12:28:10.247Z,43.34
2022-07-25T12:30:37.726Z,43.34
2022-07-25T12:33:06.733Z,43.93
2022-07-25T12:35:34.005Z,43.98
2022-07-25T12:38:00.499Z,43.92
2022-07-25T12:40:28.079Z,44.15
2022-07-25T12:42:54.876Z,44.25
2022-07-25T12:45:21.683Z,44.02
2022-07-25T12:47:48.548Z,44.37
2022-07-25T12:50:16.775Z,44.99
2022-07-25T12:52:44.502Z,44.54
2022-07-25T12:55:13.968Z,44.78
2022-07-25T12:57:40.563Z,44.31
2022-07-25T13:00:10.957Z,45.23
2022-07-25T13:02:37.893Z,44.33
2022-07-25T13:05:05.524Z,44.56
2022-07-25T13:07:33.218Z,44.00
2022-07-25T13:10:00.844Z,44.42
2022-07-25T13:12:28.081Z,44.12
2022-07-25T13:14:54.849Z,44.07
2022-07-25T13:17:26.892Z,43.70
2022-07-25T13:19:55.877Z,43.96
2022-07-25T13:22:22.475Z,43.49
2022-07-25T13:24:49.022Z,42.89
2022-07-25T13:27:18.150Z,42.74
2022-07-25T13:29:44.891Z,43.10
2022-07-25T13:32:14.375Z,42.77
2022-07-25T13:34:41.012Z,42.53
2022-07-25T13:37:07.446Z,43.50
2022-07-25T13:39:36.133Z,42.80
2022-07-25T13:42:03.123Z,42.31
2022-07-25T13:44:29.736Z,42.10
2022-07-25T13:46:59.602Z,42.21
2022-07-25T13:49:26.595Z,42.34
2022-07-25T13:51:53.124Z,42.32
2022-07-25T13:54:19.775Z,42.43
2022-07-25T13:56:47.624Z,42.79
2022-07-25T13:59:20.534Z,42.84
2022-07-25T14:01:47.933Z,42.68
2022-07-25T14:04:14.660Z,42.77
2022-07-25T14:06:41.654Z,42.64
2022-07-25T14:09:08.753Z,42.82
2022-07-25T14:11:35.557Z,43.03
2022-07-25T14:14:02.027Z,43.85
2022-07-25T14:16:29.311Z,44.17
2022-07-25T14:18:56.153Z,44.41
2022-07-25T14:21:23.000Z,44.66
2022-07-25T14:23:49.607Z,44.47
2022-07-25T14:26:16.203Z,44.31
2022-07-25T14:28:43.578Z,44.67
2022-07-25T14:31:11.462Z,44.30
2022-07-25T14:33:40.011Z,44.85
2022-07-25T14:36:08.504Z,44.47
2022-07-25T14:38:35.205Z,44.83
2022-07-25T14:41:05.669Z,45.04
2022-07-25T14:43:35.685Z,45.42
2022-07-25T14:46:02.169Z,45.57
2022-07-25T14:48:29.231Z,45.85
2022-07-25T14:50:58.520Z,46.22
2022-07-25T14:53:24.937Z,46.53
2022-07-25T14:55:51.372Z,47.12
2022-07-25T14:58:17.833Z,46.93
2022-07-25T15:00:45.920Z,46.88
2022-07-25T15:03:12.936Z,47.63
2022-07-25T15:05:41.485Z,47.63
2022-07-25T15:08:08.331Z,47.75
2022-07-25T15:10:34.809Z,48.59
2022-07-25T15:13:29.323Z,48.69
2022-07-25T15:15:49.129Z,48.67
2022-07-25T15:18:15.564Z,47.82
2022-07-25T15:20:42.235Z,47.92
2022-07-25T15:23:08.755Z,47.34
2022-07-25T15:26:00.582Z,48.01
2022-07-25T15:28:22.311Z,47.90
2022-07-25T15:30:49.399Z,46.96
2022-07-25T15:33:17.250Z,46.39
2022-07-25T15:35:45.560Z,45.55
2022-07-25T15:38:13.350Z,44.85
2022-07-25T15:40:39.900Z,44.70
2022-07-25T15:43:06.388Z,45.26
2022-07-25T15:45:33.809Z,45.60
2022-07-25T15:48:01.467Z,45.60
2022-07-25T15:50:27.896Z,45.75
2022-07-25T15:52:54.537Z,44.48
2022-07-25T15:55:21.204Z,44.89
2022-07-25T15:57:47.675Z,45.08
2022-07-25T16:00:14.666Z,45.20
2022-07-25T16:02:41.121Z,45.57
2022-07-25T16:05:07.872Z,45.25
2022-07-25T16:07:35.280Z,45.46
2022-07-25T16:10:01.792Z,45.45
2022-07-25T16:12:28.947Z,44.67
2022-07-25T16:17:44.419Z,44.75
2022-07-25T16:20:11.908Z,45.36
2022-07-25T16:23:06.054Z,45.07
2022-07-25T16:25:32.566Z,45.12
2022-07-25T16:28:00.005Z,45.32
2022-07-25T16:30:27.769Z,45.10
2022-07-25T16:32:54.406Z,45.55
2022-07-25T16:35:21.304Z,46.03
2022-07-25T16:37:48.071Z,49.91
2022-07-25T16:40:14.669Z,48.18
2022-07-25T16:42:41.566Z,46.97
2022-07-25T16:45:08.683Z,45.58
2022-07-25T16:47:35.230Z,45.04
2022-07-25T16:50:02.077Z,44.39
2022-07-25T16:52:28.789Z,44.43
2022-07-25T16:54:55.220Z,44.30
2022-07-25T16:57:24.753Z,44.49
2022-07-25T16:59:53.232Z,44.51
2022-07-25T17:02:20.144Z,44.16
2022-07-25T17:04:46.716Z,43.92
2022-07-25T17:07:13.369Z,43.68
2022-07-25T17:09:40.803Z,44.11
2022-07-25T17:12:10.603Z,44.09
2022-07-25T17:14:37.279Z,43.89
2022-07-25T17:17:07.406Z,44.60
2022-07-25T17:19:38.628Z,44.26
2022-07-25T17:22:06.573Z,43.54
2022-07-25T17:24:33.235Z,43.57
2022-07-25T17:27:02.564Z,43.36
2022-07-25T17:29:29.660Z,42.73
2022-07-25T17:31:56.198Z,42.45
2022-07-25T17:34:23.370Z,42.98
2022-07-25T17:39:41.267Z,42.34
2022-07-25T17:42:07.961Z,42.79
2022-07-25T18:18:48.242Z,40.93
2022-07-25T18:21:14.717Z,40.72
2022-07-25T18:23:41.128Z,41.48
2022-07-25T18:57:31.855Z,42.63
2022-07-25T19:00:02.744Z,42.93
2022-07-25T19:02:30.010Z,42.45
2022-07-25T19:15:10.140Z,43.59
2022-07-25T19:17:37.668Z,43.48
2022-07-25T19:20:04.897Z,43.06
2022-07-25T19:22:31.622Z,43.52
2022-07-25T19:24:58.139Z,43.95
2022-07-25T19:27:25.811Z,43.84
2022-07-25T19:29:55.654Z,44.18
2022-07-25T19:32:22.531Z,43.98
2022-07-25T19:34:49.270Z,44.20
2022-07-25T19:37:15.796Z,44.20
2022-07-25T19:39:42.413Z,44.08
2022-07-25T19:42:09.842Z,44.29
2022-07-25T19:44:37.096Z,44.15
2022-07-25T19:49:55.019Z,43.76
2022-07-25T20:35:09.639Z,45.35
2022-07-25T20:37:36.068Z,45.43
2022-07-25T20:40:04.187Z,45.45
2022-07-25T20:42:31.204Z,45.52
2022-07-25T20:44:57.919Z,45.73
2022-07-25T20:47:24.985Z,45.64
2022-07-25T20:49:51.480Z,45.75
2022-07-25T20:52:18.195Z,46.21
2022-07-25T20:54:44.792Z,46.15
2022-07-25T20:57:11.687Z,45.94
2022-07-25T20:59:38.335Z,46.19
2022-07-25T21:02:04.962Z,46.77
2022-07-25T21:04:31.454Z,46.82
2022-07-25T21:06:57.866Z,46.90
2022-07-25T21:09:25.238Z,47.37
2022-07-25T21:11:53.964Z,47.38
2022-07-25T21:14:20.445Z,47.47
2022-07-25T21:16:47.273Z,47.83
2022-07-25T21:19:13.820Z,48.13
2022-07-25T21:21:40.372Z,48.38
2022-07-25T21:24:07.090Z,48.79
2022-07-25T21:26:33.625Z,49.00
2022-07-25T21:29:00.089Z,48.86
2022-07-25T21:31:26.663Z,49.14
2022-07-25T21:33:53.140Z,49.25
2022-07-25T21:36:19.594Z,49.42
2022-07-25T21:38:46.208Z,49.58
2022-07-25T21:41:12.767Z,49.49
2022-07-25T21:43:40.371Z,49.83
2022-07-25T21:46:06.945Z,49.75
2022-07-25T21:48:51.903Z,49.76
2022-07-25T21:51:23.346Z,50.30
2022-07-25T21:53:51.845Z,50.16
2022-07-25T21:56:18.902Z,50.38
2022-07-25T21:58:45.361Z,50.54
2022-07-25T22:01:12.290Z,50.84
2022-07-25T22:03:40.422Z,50.82
2022-07-25T22:06:08.166Z,51.08
2022-07-25T22:08:34.629Z,51.32
2022-07-25T22:11:01.117Z,51.47
2022-07-25T22:13:43.242Z,51.60
2022-07-25T22:16:09.971Z,51.55
2022-07-25T22:18:36.461Z,51.93
2022-07-25T22:21:03.400Z,52.04
2022-07-25T22:23:29.798Z,52.28
2022-07-25T22:25:56.320Z,52.20
2022-07-25T22:28:22.796Z,52.38
2022-07-25T22:30:49.349Z,52.49
2022-07-25T22:33:15.869Z,52.70
2022-07-25T22:35:42.761Z,52.63
2022-07-25T22:38:09.241Z,52.80
2022-07-25T22:40:36.441Z,52.94
2022-07-25T22:43:03.159Z,53.30
2022-07-25T22:45:29.950Z,53.23
2022-07-25T22:47:56.745Z,53.44
2022-07-25T22:50:23.405Z,53.37
2022-07-25T22:52:49.935Z,53.25
2022-07-25T22:55:16.551Z,53.33
2022-07-25T22:57:43.139Z,53.67
2022-07-25T23:00:11.861Z,53.82
2022-07-25T23:02:39.897Z,54.10
2022-07-25T23:05:07.378Z,54.03
2022-07-25T23:07:34.739Z,54.09
2022-07-25T23:10:01.885Z,54.19
2022-07-25T23:12:28.337Z,53.97
2022-07-25T23:14:54.841Z,54.10
2022-07-25T23:17:21.399Z,54.14
2022-07-25T23:19:50.568Z,54.32
2022-07-25T23:22:18.732Z,54.88
2022-07-25T23:24:45.387Z,54.90
2022-07-25T23:27:12.397Z,54.75
2022-07-25T23:29:39.213Z,55.06
2022-07-25T23:32:07.029Z,54.45
2022-07-25T23:34:34.677Z,54.67
2022-07-25T23:37:02.223Z,54.40
2022-07-25T23:39:29.391Z,54.68
2022-07-25T23:41:55.811Z,54.88
2022-07-25T23:44:22.642Z,55.56
2022-07-25T23:46:50.671Z,55.32
2022-07-25T23:49:17.725Z,55.55
2022-07-25T23:51:44.310Z,55.56
2022-07-25T23:54:10.762Z,55.61
2022-07-25T23:56:37.249Z,55.77
2022-07-25T23:59:04.261Z,55.60
